Terminal Aerodrome Forecast
Issued by NWS

Home | Current Version | Previous Version | Text Only | Print | Product List | Glossary On
Versions: 1 2 3 4 5 6 7 8 9 10 11 12 13 14 15 16 17 18
000
FTUS43 KDTX 302200 AAB
TAFMBS
TAF AMD
KMBS 302237Z 3023/3118 21012KT P6SM SCT035 BKN060
      TEMPO 3023/3101 5SM -SHRA BKN035 OVC045
     FM310200 22010KT P6SM BKN025
     FM310700 23007KT 4SM BR BKN015 OVC025
     FM311400 25010KT P6SM BKN025=

USA.gov is the U.S. government's official web portal to all federal, state and local government web resources and services.